Lake Tacoma, Illinois
Current Conditions -  °F | °C
As of 8:52 AM on Saturday 20 Dec 2014 (Local Time) from KMDH Reporting Station
Overcast Overcast  
Wind Chill: 34°   Ceiling: 3900
Heat Index: 34°   Visibility: 9mi
Dew Point: 28°   Wind: 3mph
Humidity: 79%   Direction: 120°ESE
Pressure: 30.31"   Gusts: NA
Location:  37.7248°N, 89.197°W
Report Text: KMDH 201452Z AUTO 12003KT 9SM OVC039 01/M02 A3031 RMK AO2 SLP266 T00111022 51011
Loading
Personal Weather Stations






























Interactive Weather Map New forecast layout! Learn more

10-Day Weather Forecast

Advertisements
Track Severe Weather on mobile